createdAt,value
2019-01-20T00:00:02.196Z,25.14
2019-01-20T00:01:02.808Z,27.58
2019-01-20T00:02:03.060Z,25.29
2019-01-20T00:03:03.458Z,25.72
2019-01-20T00:04:03.675Z,25.72
2019-01-20T00:05:03.585Z,26.34
2019-01-20T00:06:03.074Z,26.34
2019-01-20T00:07:02.850Z,25.54
2019-01-20T00:08:03.457Z,25.54
2019-01-20T00:09:03.005Z,25.94
2019-01-20T00:10:03.659Z,32.74
2019-01-20T00:11:03.101Z,30.61
2019-01-20T00:12:02.965Z,30.61
2019-01-20T00:13:03.528Z,24.63
2019-01-20T00:14:03.453Z,24.63
2019-01-20T00:15:03.572Z,21.05
2019-01-20T00:16:03.492Z,21.79
2019-01-20T00:17:03.185Z,26.35
2019-01-20T00:18:02.741Z,25.19
2019-01-20T00:19:03.288Z,24.54
2019-01-20T00:20:02.918Z,24.54
2019-01-20T00:21:03.643Z,22.54
2019-01-20T00:22:02.150Z,27.19
2019-01-20T00:23:03.507Z,23.57
2019-01-20T00:24:03.654Z,23.57
2019-01-20T00:25:03.715Z,21.14
2019-01-20T00:26:03.342Z,26.58
2019-01-20T00:27:03.602Z,20.76
2019-01-20T00:28:02.818Z,27.94
2019-01-20T00:29:03.464Z,25.16
2019-01-20T00:30:03.568Z,25.16
2019-01-20T00:31:03.110Z,30.32
2019-01-20T00:32:02.894Z,30.32
2019-01-20T00:33:02.889Z,24.91
2019-01-20T00:34:03.304Z,24.91
2019-01-20T00:35:03.151Z,21.97
2019-01-20T00:36:03.165Z,21.97
2019-01-20T00:37:03.041Z,25.29
2019-01-20T00:38:03.555Z,25.29
2019-01-20T00:39:02.881Z,23.89
2019-01-20T00:40:03.353Z,23.89
2019-01-20T00:41:03.315Z,22.91
2019-01-20T00:42:03.335Z,26.1
2019-01-20T00:43:03.039Z,23.19
2019-01-20T00:44:01.998Z,25.83
2019-01-20T00:45:02.673Z,21.22
2019-01-20T00:46:03.258Z,19.89
2019-01-20T00:47:03.099Z,26.25
2019-01-20T00:48:02.735Z,26.25
2019-01-20T00:49:02.867Z,24.67
2019-01-20T00:50:03.557Z,23.55
2019-01-20T00:51:03.127Z,28.32
2019-01-20T00:52:03.543Z,23.5
2019-01-20T00:53:02.958Z,20
2019-01-20T00:54:03.352Z,22.26
2019-01-20T00:55:02.843Z,22.92
2019-01-20T00:56:03.226Z,25.37
2019-01-20T00:57:03.059Z,27.71
2019-01-20T00:58:03.120Z,25.74
2019-01-20T00:59:02.954Z,27.35
2019-01-20T01:00:03.173Z,27.35
2019-01-20T01:01:03.378Z,25.17
2019-01-20T01:02:03.366Z,25.17
2019-01-20T01:03:03.395Z,30.05
2019-01-20T01:04:03.062Z,28.28
2019-01-20T01:05:03.113Z,27.12
2019-01-20T01:06:03.497Z,24.62
2019-01-20T01:07:02.686Z,24.62
2019-01-20T01:08:02.313Z,24.14
2019-01-20T01:09:02.101Z,21.94
2019-01-20T01:10:03.191Z,21.94
2019-01-20T01:11:03.385Z,24.01
2019-01-20T01:12:02.675Z,24.01
2019-01-20T01:13:03.206Z,27.11
2019-01-20T01:14:03.153Z,25.56
2019-01-20T01:15:03.392Z,21.7
2019-01-20T01:16:03.295Z,23.65
2019-01-20T01:17:03.511Z,24.66
2019-01-20T01:18:03.650Z,21.46
2019-01-20T01:19:02.803Z,27.22
2019-01-20T01:20:03.580Z,21.85
2019-01-20T01:21:02.849Z,24.95
2019-01-20T01:22:03.237Z,25.49
2019-01-20T01:23:02.865Z,25.49
2019-01-20T01:24:03.149Z,26.22
2019-01-20T01:25:03.230Z,21.29
2019-01-20T01:26:03.400Z,24.09
2019-01-20T01:27:03.015Z,22.34
2019-01-20T01:28:03.519Z,22.34
2019-01-20T01:29:03.304Z,24.71
2019-01-20T01:30:01.821Z,28.48
2019-01-20T01:31:01.614Z,28.48
2019-01-20T01:32:01.889Z,23.78
2019-01-20T01:33:03.554Z,25.59
2019-01-20T01:34:01.967Z,21.41
2019-01-20T01:35:03.325Z,21.71
2019-01-20T01:36:02.835Z,26.64
2019-01-20T01:37:03.111Z,25.65
2019-01-20T01:38:02.964Z,19.64
2019-01-20T01:39:03.195Z,19.64
2019-01-20T01:40:03.342Z,23.5
2019-01-20T01:41:03.534Z,23.12
2019-01-20T01:42:03.523Z,20.08
2019-01-20T01:43:02.734Z,25.32
2019-01-20T01:44:03.090Z,22.46
2019-01-20T01:45:03.241Z,22.46
2019-01-20T01:46:02.943Z,22.08
2019-01-20T01:47:03.101Z,22.08
2019-01-20T01:48:03.399Z,22.64
2019-01-20T01:49:03.387Z,28.46
2019-01-20T01:50:04.097Z,28.46
2019-01-20T01:51:03.096Z,22.59
2019-01-20T01:52:03.216Z,23.75
2019-01-20T01:53:02.986Z,20.95
2019-01-20T01:54:01.869Z,27.09
2019-01-20T01:55:02.038Z,29.55
2019-01-20T01:56:03.085Z,26.16
2019-01-20T01:57:03.158Z,26.16
2019-01-20T01:58:03.064Z,21.84
2019-01-20T01:59:03.155Z,22.98
2019-01-20T02:00:02.972Z,23.22
2019-01-20T02:01:02.750Z,23.22
2019-01-20T02:02:02.842Z,22.11
2019-01-20T02:03:03.193Z,22.11
2019-01-20T02:04:02.852Z,21.53
2019-01-20T02:05:03.245Z,26.99
2019-01-20T02:06:02.627Z,27.23
2019-01-20T02:07:03.195Z,27.23
2019-01-20T02:08:03.109Z,20.84
2019-01-20T02:09:03.259Z,20.84
2019-01-20T02:10:03.507Z,19.92
2019-01-20T02:11:03.050Z,19.92
2019-01-20T02:12:03.143Z,21.78
2019-01-20T02:13:03.246Z,21.78
2019-01-20T02:14:03.270Z,25.22
2019-01-20T02:15:02.595Z,25.36
2019-01-20T02:16:03.242Z,22.42
2019-01-20T02:17:03.443Z,21.34
2019-01-20T02:18:03.315Z,22
2019-01-20T02:19:02.780Z,22
2019-01-20T02:20:03.317Z,22.92
2019-01-20T02:21:02.825Z,24.59
2019-01-20T02:22:03.315Z,20.56
2019-01-20T02:23:02.787Z,19.94
2019-01-20T02:24:03.138Z,23.83
2019-01-20T02:25:03.022Z,23.83
2019-01-20T02:26:03.285Z,23.38
2019-01-20T02:27:03.307Z,24.16
2019-01-20T02:28:02.964Z,25.64
2019-01-20T02:29:03.460Z,25.64
2019-01-20T02:30:03.058Z,26.17
2019-01-20T02:31:02.883Z,26.17
2019-01-20T02:32:02.781Z,22.27
2019-01-20T02:33:03.647Z,22.27
2019-01-20T02:34:02.974Z,27.08
2019-01-20T02:35:02.924Z,27.08
2019-01-20T02:36:03.023Z,20.4
2019-01-20T02:37:02.757Z,20.4
2019-01-20T02:38:03.486Z,20.28
2019-01-20T02:39:02.710Z,24.05
2019-01-20T02:40:02.404Z,29.21
2019-01-20T02:41:02.041Z,23.76
2019-01-20T02:42:02.711Z,20
2019-01-20T02:43:03.042Z,27.38
2019-01-20T02:44:03.221Z,24.17
2019-01-20T02:45:03.146Z,21
2019-01-20T02:46:03.490Z,21.65
2019-01-20T02:47:03.593Z,26.43
2019-01-20T02:48:03.606Z,21.37
2019-01-20T02:49:03.733Z,21.37
2019-01-20T02:50:03.557Z,24.46
2019-01-20T02:51:03.518Z,24.63
2019-01-20T02:52:03.584Z,21.18
2019-01-20T02:53:03.156Z,21.18
2019-01-20T02:54:03.095Z,22.55
2019-01-20T02:55:02.941Z,22.55
2019-01-20T02:56:02.663Z,23.59
2019-01-20T02:57:03.064Z,24.35
2019-01-20T02:58:03.556Z,20.22
2019-01-20T02:59:03.804Z,20.22
2019-01-20T03:00:02.897Z,20.36
2019-01-20T03:01:02.734Z,20.36
2019-01-20T03:02:02.926Z,22.08
2019-01-20T03:03:03.004Z,22.13
2019-01-20T03:04:03.584Z,22.13
2019-01-20T03:05:02.300Z,24.93
2019-01-20T03:06:03.626Z,22.12
2019-01-20T03:07:03.505Z,22.12
2019-01-20T03:08:03.130Z,24.43
2019-01-20T03:09:03.192Z,24.43
2019-01-20T03:10:03.148Z,22.11
2019-01-20T03:11:03.353Z,22.99
2019-01-20T03:12:03.819Z,22.15
2019-01-20T03:13:02.876Z,22.15
2019-01-20T03:14:02.707Z,21.69
2019-01-20T03:15:03.564Z,26.62
2019-01-20T03:16:02.827Z,26.62
2019-01-20T03:17:02.762Z,21.52
2019-01-20T03:18:02.792Z,22.66
2019-01-20T03:19:03.511Z,22.91
2019-01-20T03:20:03.628Z,22.91
2019-01-20T03:21:03.219Z,19.33
2019-01-20T03:22:02.939Z,19.33
2019-01-20T03:23:02.874Z,22.74
2019-01-20T03:24:03.516Z,21.82
2019-01-20T03:25:02.707Z,22.31
2019-01-20T03:26:03.283Z,21.11
2019-01-20T03:27:03.288Z,21.93
2019-01-20T03:28:01.886Z,19.06
2019-01-20T03:29:02.124Z,18.32
2019-01-20T03:30:02.991Z,18.32
2019-01-20T03:31:03.422Z,23
2019-01-20T03:32:03.300Z,23
2019-01-20T03:33:03.569Z,23.32
2019-01-20T03:34:03.371Z,23.32
2019-01-20T03:35:03.729Z,24.52
2019-01-20T03:36:03.757Z,24.52
2019-01-20T03:37:03.024Z,18.88
2019-01-20T03:38:02.947Z,22.44
2019-01-20T03:41:03.247Z,22.44
2019-01-20T03:42:03.075Z,20.74
2019-01-20T03:43:03.240Z,23.18
2019-01-20T03:44:02.895Z,23.18
2019-01-20T03:45:03.245Z,18.78
2019-01-20T03:46:03.775Z,18.78
2019-01-20T03:47:03.484Z,22.12
2019-01-20T03:48:02.890Z,22.12
2019-01-20T03:49:02.671Z,28.04
2019-01-20T03:50:03.071Z,21.65
2019-01-20T03:51:03.754Z,19.7
2019-01-20T03:52:03.442Z,18.99
2019-01-20T03:53:02.712Z,24.31
2019-01-20T03:54:03.052Z,24.31
2019-01-20T03:55:03.119Z,24.09
2019-01-20T03:56:02.775Z,24.81
2019-01-20T03:57:03.589Z,19.75
2019-01-20T03:58:03.445Z,19.75
2019-01-20T03:59:03.155Z,20.72
2019-01-20T04:00:02.998Z,20.72
2019-01-20T04:01:02.950Z,24.54
2019-01-20T04:02:03.018Z,24.54
2019-01-20T04:03:03.167Z,28.44
2019-01-20T04:04:02.856Z,28.44
2019-01-20T04:05:02.569Z,18.55
2019-01-20T04:06:03.431Z,19.37
2019-01-20T04:07:03.276Z,24.15
2019-01-20T04:08:02.998Z,24.15
2019-01-20T04:09:03.643Z,23.58
2019-01-20T04:10:03.098Z,23.58
2019-01-20T04:11:03.694Z,20.49
2019-01-20T04:12:03.325Z,20.49
2019-01-20T04:13:03.449Z,20.73
2019-01-20T04:14:03.249Z,20.73
2019-01-20T04:15:03.229Z,21.04
2019-01-20T04:16:02.600Z,19.19
2019-01-20T04:17:03.278Z,19.19
2019-01-20T04:18:02.861Z,22.02
2019-01-20T04:19:02.425Z,23.1
2019-01-20T04:20:03.667Z,21.88
2019-01-20T04:21:03.478Z,21.88
2019-01-20T04:22:03.191Z,20.25
2019-01-20T04:23:02.993Z,21.41
2019-01-20T04:24:03.284Z,18.31
2019-01-20T04:25:01.933Z,22.89
2019-01-20T04:26:02.452Z,19.83
2019-01-20T04:27:02.836Z,19.42
2019-01-20T04:28:03.157Z,20.83
2019-01-20T04:29:03.171Z,23.12
2019-01-20T04:30:03.138Z,26.88
2019-01-20T04:31:03.537Z,22.05
2019-01-20T04:32:03.104Z,21.26
2019-01-20T04:33:03.050Z,19.56
2019-01-20T04:34:02.926Z,24.69
2019-01-20T04:35:03.429Z,21.53
2019-01-20T04:36:03.583Z,21.53
2019-01-20T04:37:02.697Z,21.24
2019-01-20T04:38:03.089Z,21.24
2019-01-20T04:39:02.640Z,23.39
2019-01-20T04:40:02.958Z,20.86
2019-01-20T04:41:03.145Z,18.25
2019-01-20T04:42:03.636Z,23.32
2019-01-20T04:43:03.521Z,30.47
2019-01-20T04:44:02.679Z,24.11
2019-01-20T04:45:03.348Z,24.11
2019-01-20T04:46:03.313Z,18.77
2019-01-20T04:47:03.218Z,18.72
2019-01-20T04:48:03.010Z,19.33
2019-01-20T04:49:03.460Z,19.33
2019-01-20T04:50:02.943Z,22.76
2019-01-20T04:51:02.798Z,19.26
2019-01-20T04:52:03.030Z,22.08
2019-01-20T04:53:03.470Z,22.08
2019-01-20T04:54:03.013Z,20.34
2019-01-20T04:55:02.565Z,20.67
2019-01-20T04:56:03.398Z,20.67
2019-01-20T04:57:02.093Z,22.69
2019-01-20T04:58:03.579Z,23.95
2019-01-20T04:59:01.815Z,19.69
2019-01-20T05:00:03.567Z,19.69
2019-01-20T05:01:03.166Z,21.82
2019-01-20T05:02:03.519Z,21.74
2019-01-20T05:03:03.696Z,21.74
2019-01-20T05:04:03.056Z,21.5
2019-01-20T05:05:03.601Z,20.27
2019-01-20T05:06:03.039Z,18.51
2019-01-20T05:07:02.647Z,18.51
2019-01-20T05:08:02.924Z,22.41
2019-01-20T05:09:03.057Z,22.41
2019-01-20T05:10:03.295Z,21.74
2019-01-20T05:11:02.823Z,21.74
2019-01-20T05:12:02.841Z,23.59
2019-01-20T05:13:03.728Z,23.59
2019-01-20T05:14:03.482Z,25.89
2019-01-20T05:15:03.255Z,24.07
2019-01-20T05:16:03.496Z,20.01
2019-01-20T05:17:03.370Z,20.01
2019-01-20T05:18:03.200Z,20.55
2019-01-20T05:19:03.378Z,19.49
2019-01-20T05:20:03.560Z,27.02
2019-01-20T05:21:02.568Z,23.74
2019-01-20T05:22:03.138Z,22.68
2019-01-20T05:23:02.899Z,20.09
2019-01-20T05:24:03.057Z,21.24
2019-01-20T05:25:03.102Z,24.47
2019-01-20T05:26:02.966Z,24.47
2019-01-20T05:27:02.618Z,18.34
2019-01-20T05:28:03.143Z,23.01
2019-01-20T05:29:03.061Z,23.01
2019-01-20T05:30:02.995Z,17.96
2019-01-20T05:31:03.606Z,17.96
2019-01-20T05:32:03.619Z,25.31
2019-01-20T05:33:02.849Z,16.11
2019-01-20T05:34:02.982Z,20.14
2019-01-20T05:35:03.556Z,20.14
2019-01-20T05:36:02.587Z,18.07
2019-01-20T05:37:02.645Z,18.07
2019-01-20T05:38:03.686Z,18.07
2019-01-20T05:39:03.105Z,24.55
2019-01-20T05:40:03.468Z,20.13
2019-01-20T05:41:03.064Z,20.13
2019-01-20T05:42:02.666Z,26.78
2019-01-20T05:43:02.736Z,26.79
2019-01-20T05:44:02.672Z,26.17
2019-01-20T05:45:03.278Z,29.76
2019-01-20T05:46:02.188Z,27.51
2019-01-20T05:47:02.946Z,27.51
2019-01-20T05:48:01.777Z,24.18
2019-01-20T05:49:03.610Z,23.26
2019-01-20T05:50:03.086Z,22.36
2019-01-20T05:51:03.590Z,25.64
2019-01-20T05:52:03.607Z,25.55
2019-01-20T05:53:02.462Z,25.55
2019-01-20T05:54:03.329Z,20.64
2019-01-20T05:55:02.883Z,22.24
2019-01-20T05:56:02.715Z,25.3
2019-01-20T05:57:02.712Z,20.9
2019-01-20T05:58:03.519Z,24.78
2019-01-20T05:59:03.542Z,24.78
2019-01-20T06:00:03.380Z,26.26
2019-01-20T06:01:02.668Z,25.34
2019-01-20T06:02:02.794Z,21.57
2019-01-20T06:03:03.589Z,21.57
2019-01-20T06:04:03.562Z,23.18
2019-01-20T06:05:02.674Z,23.18
2019-01-20T06:06:03.079Z,19.65
2019-01-20T06:07:03.657Z,24.92
2019-01-20T06:08:02.749Z,20.76
2019-01-20T06:09:03.394Z,20.76
2019-01-20T06:10:02.823Z,25.64
2019-01-20T06:11:03.281Z,24.17
2019-01-20T06:12:02.656Z,20.81
2019-01-20T06:13:03.080Z,21.65
2019-01-20T06:14:02.715Z,24.08
2019-01-20T06:15:02.789Z,27.48
2019-01-20T06:16:03.289Z,27.48
2019-01-20T06:17:02.823Z,23.02
2019-01-20T06:18:02.910Z,25.25
2019-01-20T06:19:02.999Z,27.85
2019-01-20T06:20:03.519Z,27.85
2019-01-20T06:21:03.163Z,24.17
2019-01-20T06:22:03.188Z,24.17
2019-01-20T06:23:02.873Z,25.21
2019-01-20T06:24:03.223Z,29.49
2019-01-20T06:25:02.720Z,27.07
2019-01-20T06:26:02.681Z,23.74
2019-01-20T06:27:02.550Z,29.6
2019-01-20T06:28:02.546Z,27.77
2019-01-20T06:29:02.950Z,27.77
2019-01-20T06:30:03.871Z,34.33
2019-01-20T06:31:03.247Z,22.3
2019-01-20T06:32:03.607Z,22.3
2019-01-20T06:33:03.016Z,27.01
2019-01-20T06:34:03.405Z,27.01
2019-01-20T06:35:02.996Z,23.27
2019-01-20T06:36:03.258Z,29.66
2019-01-20T06:37:03.644Z,26.13
2019-01-20T06:38:03.530Z,27.51
2019-01-20T06:39:03.527Z,26.62
2019-01-20T06:40:03.199Z,26.62
2019-01-20T06:41:02.919Z,25.79
2019-01-20T06:42:03.044Z,30.34
2019-01-20T06:43:03.360Z,31.38
2019-01-20T06:44:03.157Z,31.38
2019-01-20T06:45:02.746Z,30.82
2019-01-20T06:46:02.540Z,30.82
2019-01-20T06:47:02.865Z,28.32
2019-01-20T06:48:03.558Z,30.39
2019-01-20T06:49:03.123Z,28.32
2019-01-20T06:50:02.965Z,28.32
2019-01-20T06:51:01.579Z,28.93
2019-01-20T06:52:02.488Z,28.93
2019-01-20T06:53:03.222Z,26.2
2019-01-20T06:54:03.438Z,27.36
2019-01-20T06:55:03.207Z,24.24
2019-01-20T06:56:03.016Z,29.88
2019-01-20T06:57:03.230Z,29.11
2019-01-20T06:58:02.896Z,28.09
2019-01-20T06:59:03.010Z,28.9
2019-01-20T07:00:03.593Z,27.26
2019-01-20T07:01:03.227Z,27.26
2019-01-20T07:02:03.083Z,28.15
2019-01-20T07:03:02.565Z,28.02
2019-01-20T07:04:03.613Z,26.3
2019-01-20T07:05:02.936Z,26.68
2019-01-20T07:06:03.551Z,28.22
2019-01-20T07:07:02.878Z,25.34
2019-01-20T07:08:03.377Z,25.34
2019-01-20T07:09:03.341Z,28.47
2019-01-20T07:10:03.295Z,27.4
2019-01-20T07:11:03.506Z,31.95
2019-01-20T07:12:02.960Z,31.95
2019-01-20T07:13:08.994Z,33.25
2019-01-20T07:14:03.447Z,33.25
2019-01-20T07:15:02.832Z,28.55
2019-01-20T07:16:03.725Z,28.91
2019-01-20T07:17:03.103Z,32.11
2019-01-20T07:18:02.966Z,32.11
2019-01-20T07:19:03.858Z,29.9
2019-01-20T07:20:02.244Z,29.9
2019-01-20T07:21:02.706Z,29.93
2019-01-20T07:22:02.678Z,33.24
2019-01-20T07:23:03.171Z,27.34
2019-01-20T07:24:02.883Z,30.78
2019-01-20T07:25:02.808Z,32.61
2019-01-20T07:26:02.690Z,28.04
2019-01-20T07:27:03.388Z,30.82
2019-01-20T07:28:02.763Z,31.91
2019-01-20T07:29:03.428Z,31.91
2019-01-20T07:30:02.565Z,29.22
2019-01-20T07:31:02.810Z,29.78
2019-01-20T07:32:02.722Z,29.72
2019-01-20T07:33:03.388Z,30.45
2019-01-20T07:34:03.411Z,30.22
2019-01-20T07:35:02.809Z,30.22
2019-01-20T07:36:02.785Z,34.66
2019-01-20T07:37:03.340Z,30.35
2019-01-20T07:38:03.592Z,36.24
2019-01-20T07:39:03.075Z,35.06
2019-01-20T07:40:02.872Z,41.04
2019-01-20T07:41:03.566Z,50.99
2019-01-20T07:42:02.117Z,48.8
2019-01-20T07:43:03.116Z,47.76
2019-01-20T07:44:02.802Z,47.76
2019-01-20T07:45:02.952Z,45.42
2019-01-20T07:46:03.580Z,45.4
2019-01-20T07:47:02.991Z,56.34
2019-01-20T07:48:03.453Z,45.82
2019-01-20T07:49:03.631Z,57.77
2019-01-20T07:50:03.106Z,57.77
2019-01-20T07:51:03.366Z,46.01
2019-01-20T07:52:03.834Z,56.85
2019-01-20T07:53:02.673Z,51.62
2019-01-20T07:54:02.649Z,57.89
2019-01-20T07:55:03.601Z,56.85
2019-01-20T07:56:03.472Z,51.32
2019-01-20T07:57:03.019Z,55.74
2019-01-20T07:58:03.512Z,52.24
2019-01-20T07:59:03.336Z,56.9
2019-01-20T08:00:03.077Z,56.9
2019-01-20T08:01:03.255Z,52.28
2019-01-20T08:02:03.442Z,55.68
2019-01-20T08:03:02.803Z,74.16
2019-01-20T08:04:03.103Z,74.16
2019-01-20T08:05:02.888Z,74.16
2019-01-20T08:06:02.749Z,57.24
2019-01-20T08:07:02.789Z,53.5
2019-01-20T08:08:03.477Z,53.5
2019-01-20T08:09:02.622Z,56.89
2019-01-20T08:10:03.298Z,56.89
2019-01-20T08:11:03.316Z,56.97
2019-01-20T08:12:02.880Z,56.97
2019-01-20T08:13:02.589Z,58.34
2019-01-20T08:14:02.388Z,57.22
2019-01-20T08:15:03.279Z,57.22
2019-01-20T08:16:03.272Z,59.54
2019-01-20T08:17:03.006Z,59.54
2019-01-20T08:18:02.647Z,59.71
2019-01-20T08:19:02.784Z,57.44
2019-01-20T08:20:02.944Z,53.35
2019-01-20T08:21:02.792Z,53.51
2019-01-20T08:22:03.041Z,52.4
2019-01-20T08:23:03.540Z,63.15
2019-01-20T08:24:03.142Z,63.15
2019-01-20T08:25:03.099Z,58.16
2019-01-20T08:26:02.819Z,56.4
2019-01-20T08:27:03.287Z,59.48
2019-01-20T08:28:03.499Z,63.12
2019-01-20T08:29:02.817Z,54.75
2019-01-20T08:30:03.317Z,54.32
2019-01-20T08:31:03.461Z,70.19
2019-01-20T08:32:03.407Z,70.19
2019-01-20T08:33:03.558Z,55.29
2019-01-20T08:34:03.167Z,55.29
2019-01-20T08:35:03.734Z,54.96
2019-01-20T08:36:03.148Z,54.96
2019-01-20T08:37:04.286Z,56.58
2019-01-20T08:38:03.489Z,56.58
2019-01-20T08:39:02.677Z,57.03
2019-01-20T08:40:03.395Z,57.03
2019-01-20T08:41:02.890Z,53.21
2019-01-20T08:42:02.700Z,56.86
2019-01-20T08:43:02.775Z,56.09
2019-01-20T08:44:03.461Z,58.74
2019-01-20T08:45:03.163Z,59.66
2019-01-20T08:46:03.212Z,54.8
2019-01-20T08:47:02.925Z,52.47
2019-01-20T08:48:03.555Z,52.47
2019-01-20T08:49:03.710Z,61.92
2019-01-20T08:50:03.232Z,54.11
2019-01-20T08:51:03.529Z,50.94
2019-01-20T08:52:03.657Z,50.94
2019-01-20T08:53:03.559Z,65.01
2019-01-20T08:54:03.515Z,65.01
2019-01-20T08:55:03.714Z,57.86
2019-01-20T08:56:03.477Z,57.86
2019-01-20T08:57:02.820Z,51.95
2019-01-20T08:58:03.580Z,64.11
2019-01-20T08:59:02.987Z,49.09
2019-01-20T09:00:03.435Z,49.09
2019-01-20T09:01:03.133Z,64.31
2019-01-20T09:02:02.793Z,64.31
2019-01-20T09:03:03.171Z,59.81
2019-01-20T09:04:03.065Z,59
2019-01-20T09:05:02.765Z,54.89
2019-01-20T09:06:02.742Z,54.05
2019-01-20T09:07:02.188Z,66.14
2019-01-20T09:08:01.831Z,58.24
2019-01-20T09:09:03.619Z,58.34
2019-01-20T09:10:03.488Z,61.67
2019-01-20T09:11:03.672Z,60.96
2019-01-20T09:12:02.896Z,60.96
2019-01-20T09:13:03.628Z,54.18
2019-01-20T09:14:03.087Z,58.76
2019-01-20T09:15:03.438Z,59.01
2019-01-20T09:16:03.220Z,47.91
2019-01-20T09:17:02.923Z,47.91
2019-01-20T09:18:03.481Z,55.84
2019-01-20T09:19:03.401Z,55.84
2019-01-20T09:20:03.564Z,55.14
2019-01-20T09:21:02.705Z,66.41
2019-01-20T09:22:02.994Z,69.04
2019-01-20T09:23:03.124Z,64.15
2019-01-20T09:24:02.786Z,59.72
2019-01-20T09:25:03.714Z,66.47
2019-01-20T09:26:03.371Z,66.47
2019-01-20T09:27:03.075Z,58.15
2019-01-20T09:28:02.832Z,58.15
2019-01-20T09:29:03.092Z,61.21
2019-01-20T09:30:03.420Z,60.98
2019-01-20T09:31:03.307Z,64.47
2019-01-20T09:32:02.738Z,64.47
2019-01-20T09:33:03.597Z,54.72
2019-01-20T09:34:03.200Z,59.48
2019-01-20T09:35:02.829Z,68.22
2019-01-20T09:36:03.409Z,68.22
2019-01-20T09:37:03.540Z,56.35
2019-01-20T09:38:02.708Z,62.6
2019-01-20T09:39:03.167Z,67.51
2019-01-20T09:40:03.343Z,59.33
2019-01-20T09:41:03.330Z,59.33
2019-01-20T09:42:03.058Z,58.74
2019-01-20T09:43:04.504Z,62.11
2019-01-20T09:44:03.419Z,57.59
2019-01-20T09:45:02.925Z,60.44
2019-01-20T09:46:03.295Z,59.84
2019-01-20T09:47:02.072Z,57.3
2019-01-20T09:48:03.243Z,57.3
2019-01-20T09:49:02.597Z,58.94
2019-01-20T09:50:03.731Z,56.51
2019-01-20T09:51:03.012Z,62.66
2019-01-20T09:52:03.423Z,65.33
2019-01-20T09:53:02.810Z,62.84
2019-01-20T09:54:03.023Z,61.92
2019-01-20T09:55:03.498Z,66.52
2019-01-20T09:56:03.314Z,60.31
2019-01-20T09:57:03.053Z,60.31
2019-01-20T09:58:02.963Z,62.14
2019-01-20T09:59:03.326Z,57.16
2019-01-20T10:00:02.802Z,57.16
2019-01-20T10:01:02.993Z,53.47
2019-01-20T10:02:02.976Z,63.65
2019-01-20T10:03:03.509Z,61.36
2019-01-20T10:04:03.428Z,61.36
2019-01-20T10:05:02.875Z,62.16
2019-01-20T10:06:03.751Z,57.84
2019-01-20T10:07:03.041Z,63.65
2019-01-20T10:08:02.707Z,65.68
2019-01-20T10:09:02.763Z,70.69
2019-01-20T10:10:02.695Z,72.78
2019-01-20T10:11:01.821Z,65.98
2019-01-20T10:12:03.040Z,63.74
2019-01-20T10:13:03.097Z,63.75
2019-01-20T10:14:03.575Z,65.76
2019-01-20T10:15:02.920Z,62.88
2019-01-20T10:16:02.646Z,68.8
2019-01-20T10:17:02.855Z,72.06
2019-01-20T10:18:03.497Z,63.7
2019-01-20T10:19:02.844Z,66.98
2019-01-20T10:20:03.656Z,66.98
2019-01-20T10:21:03.611Z,62.58
2019-01-20T10:22:03.276Z,62.64
2019-01-20T10:23:03.309Z,74.41
2019-01-20T10:24:02.894Z,74.41
2019-01-20T10:25:02.860Z,63.06
2019-01-20T10:26:03.640Z,56.18
2019-01-20T10:27:02.950Z,60.78
2019-01-20T10:28:02.815Z,60.78
2019-01-20T10:29:03.424Z,67.07
2019-01-20T10:30:03.243Z,62.11
2019-01-20T10:31:02.846Z,63.34
2019-01-20T10:32:02.137Z,58.81
2019-01-20T10:33:03.492Z,58.81
2019-01-20T10:34:02.669Z,60.7
2019-01-20T10:35:03.496Z,59.36
2019-01-20T10:36:02.935Z,59.36
2019-01-20T10:37:02.765Z,64.81
2019-01-20T10:38:03.164Z,64.81
2019-01-20T10:39:02.868Z,62.54
2019-01-20T10:40:02.961Z,62.54
2019-01-20T10:41:03.507Z,61.96
2019-01-20T10:42:03.394Z,61.96
2019-01-20T10:43:03.137Z,63.79
2019-01-20T10:44:03.016Z,63.79
2019-01-20T10:45:03.465Z,67.51
2019-01-20T10:46:03.103Z,71.56
2019-01-20T10:47:02.743Z,63.05
2019-01-20T10:48:02.801Z,63.05
2019-01-20T10:49:03.505Z,60.59
2019-01-20T10:50:03.281Z,71.86
2019-01-20T10:51:03.445Z,73.01
2019-01-20T10:52:03.143Z,73.01
2019-01-20T10:53:03.450Z,64.81
2019-01-20T10:54:03.430Z,64.81
2019-01-20T10:55:03.156Z,71.97
2019-01-20T10:56:01.792Z,57.18
2019-01-20T10:57:02.732Z,57.18
2019-01-20T10:58:02.748Z,91.26
2019-01-20T10:59:02.877Z,91.26
2019-01-20T11:00:03.658Z,74.61
2019-01-20T11:01:02.897Z,79.69
2019-01-20T11:02:03.009Z,142
2019-01-20T11:03:03.223Z,87.11
2019-01-20T11:04:03.009Z,95.51
2019-01-20T11:05:03.565Z,74.69
2019-01-20T11:06:02.772Z,57.98
2019-01-20T11:07:03.610Z,60.04
2019-01-20T11:08:03.122Z,59.83
2019-01-20T11:09:03.825Z,56.83
2019-01-20T11:10:03.301Z,56.67
2019-01-20T11:11:02.847Z,60.27
2019-01-20T11:12:03.609Z,54.77
2019-01-20T11:13:03.237Z,54.77
2019-01-20T11:14:01.739Z,58.09
2019-01-20T11:15:03.155Z,59.08
2019-01-20T11:16:02.745Z,60.38
2019-01-20T11:17:03.460Z,60.38
2019-01-20T11:18:02.655Z,56.85
2019-01-20T11:19:02.793Z,59.55
2019-01-20T11:20:03.434Z,62.78
2019-01-20T11:21:03.341Z,62.78
2019-01-20T11:22:03.090Z,53.72
2019-01-20T11:23:01.708Z,61.71
2019-01-20T11:24:03.426Z,61.71
2019-01-20T11:25:02.982Z,57.46
2019-01-20T11:26:03.424Z,57.46
2019-01-20T11:27:02.957Z,57.5
2019-01-20T11:28:03.329Z,57.26
2019-01-20T11:29:03.166Z,53.31
2019-01-20T11:30:03.280Z,53.44
2019-01-20T11:31:03.585Z,53.44
2019-01-20T11:32:02.803Z,60.13
2019-01-20T11:33:02.704Z,60.13
2019-01-20T11:34:03.018Z,56.74
2019-01-20T11:35:03.371Z,56.74
2019-01-20T11:36:03.484Z,56.1
2019-01-20T11:37:03.238Z,55.45
2019-01-20T11:38:03.153Z,55.45
2019-01-20T11:39:02.813Z,51.25
2019-01-20T11:40:03.530Z,50.04
2019-01-20T11:41:03.560Z,50.04
2019-01-20T11:42:01.863Z,56.58
2019-01-20T11:43:02.704Z,54.88
2019-01-20T11:44:02.799Z,60.73
2019-01-20T11:45:03.021Z,60.35
2019-01-20T11:46:03.044Z,53.47
2019-01-20T11:47:02.990Z,50.95
2019-01-20T11:48:03.056Z,55.88
2019-01-20T11:49:02.963Z,57.58
2019-01-20T11:50:03.313Z,59.19
2019-01-20T11:51:03.252Z,59.19
2019-01-20T11:52:03.088Z,56.94
2019-01-20T11:53:03.060Z,55.26
2019-01-20T11:54:03.549Z,54.62
2019-01-20T11:55:02.858Z,65.09
2019-01-20T11:56:04.931Z,52.81
2019-01-20T11:57:02.964Z,53.36
2019-01-20T11:58:04.131Z,53.36
2019-01-20T11:59:03.387Z,58.11
2019-01-20T12:00:02.585Z,58.11
2019-01-20T12:01:02.880Z,54.46
2019-01-20T12:02:03.525Z,54.46
2019-01-20T12:03:03.574Z,54.02
2019-01-20T12:04:03.525Z,54.02
2019-01-20T12:05:03.072Z,57.52
2019-01-20T12:06:02.845Z,57.86
2019-01-20T12:07:02.738Z,51.19
2019-01-20T12:08:03.218Z,51.19
2019-01-20T12:09:03.108Z,52.28
2019-01-20T12:10:02.322Z,55.82
2019-01-20T12:11:03.673Z,55.82
2019-01-20T12:12:03.181Z,55.82
2019-01-20T12:13:02.507Z,51.21
2019-01-20T12:14:02.083Z,51.21
2019-01-20T12:15:03.139Z,50.81
2019-01-20T12:16:03.284Z,50.81
2019-01-20T12:17:02.750Z,56.72
2019-01-20T12:18:02.684Z,56
2019-01-20T12:19:03.528Z,52.39
2019-01-20T12:20:06.967Z,55.22
2019-01-20T12:21:03.536Z,56.76
2019-01-20T12:22:03.265Z,56.76
2019-01-20T12:23:03.217Z,60.92
2019-01-20T12:24:02.737Z,57.02
2019-01-20T12:25:03.052Z,54.38
2019-01-20T12:26:02.769Z,54.38
2019-01-20T12:27:03.041Z,61.12
2019-01-20T12:28:02.938Z,61.12
2019-01-20T12:29:03.421Z,54.71
2019-01-20T12:30:03.269Z,63.14
2019-01-20T12:31:02.688Z,56.29
2019-01-20T12:32:03.485Z,53.59
2019-01-20T12:33:02.598Z,59.86
2019-01-20T12:34:03.142Z,60.67
2019-01-20T12:35:02.246Z,58.96
2019-01-20T12:36:02.622Z,70.04
2019-01-20T12:37:02.250Z,63.34
2019-01-20T12:38:02.711Z,63.93
2019-01-20T12:39:02.993Z,62.55
2019-01-20T12:40:03.461Z,71.78
2019-01-20T12:41:03.465Z,66.16
2019-01-20T12:42:02.588Z,73.79
2019-01-20T12:43:03.384Z,64.02
2019-01-20T12:44:02.908Z,66.32
2019-01-20T12:45:03.662Z,53.67
2019-01-20T12:46:03.215Z,54.71
2019-01-20T12:47:02.656Z,54.71
2019-01-20T12:48:01.889Z,55.22
2019-01-20T12:49:02.363Z,49.06
2019-01-20T12:50:03.738Z,50.34
2019-01-20T12:51:03.260Z,65.65
2019-01-20T12:52:01.822Z,54.03
2019-01-20T12:53:03.509Z,54.03
2019-01-20T12:54:03.321Z,56.76
2019-01-20T12:55:03.178Z,58.14
2019-01-20T12:56:03.126Z,58.14